sim
Sign-in with your pilot id or email,
or register
Callsign
Passwort

Schedule Details

Flight Number: DLH1225
Departure: Geneva International Airport (LSGG) at 18:20
Arrival: Frankfurt Airport (EDDF) at 19:35
Route: Lufthansa Passenger Schedule. Enter filed route here before submitting Pirep.

Weather Information
Getting current METAR information for LSGG 101850Z 25004KT 210V280 CAVOK 12/03 Q1012 NOSIG
Getting current METAR information for EDDF 101850Z 07003KT 9999 FEW019 SCT040 10/08 Q1011 NOSIG

Schedule Frequency

Route Map